sensor_id;sensor_type;location;lat;lon;timestamp;P1;durP1;ratioP1;P2;durP2;ratioP2
3070;SDS011;1546;47.208;9.038;2022-08-03T00:02:35;6.10;;;3.33;;
3070;SDS011;1546;47.208;9.038;2022-08-03T00:05:21;3.83;;;1.77;;
3070;SDS011;1546;47.208;9.038;2022-08-03T00:08:06;4.00;;;2.00;;
3070;SDS011;1546;47.208;9.038;2022-08-03T00:10:52;3.70;;;1.97;;
3070;SDS011;1546;47.208;9.038;2022-08-03T00:13:38;3.60;;;1.90;;
3070;SDS011;1546;47.208;9.038;2022-08-03T00:16:23;4.20;;;2.40;;
3070;SDS011;1546;47.208;9.038;2022-08-03T00:19:10;3.97;;;1.97;;
3070;SDS011;1546;47.208;9.038;2022-08-03T00:21:56;3.60;;;2.07;;
3070;SDS011;1546;47.208;9.038;2022-08-03T00:24:41;4.47;;;2.60;;
3070;SDS011;1546;47.208;9.038;2022-08-03T00:27:27;3.90;;;2.20;;
3070;SDS011;1546;47.208;9.038;2022-08-03T00:30:13;3.47;;;1.97;;
3070;SDS011;1546;47.208;9.038;2022-08-03T00:32:58;5.87;;;3.13;;
3070;SDS011;1546;47.208;9.038;2022-08-03T00:35:45;4.07;;;1.97;;
3070;SDS011;1546;47.208;9.038;2022-08-03T00:38:31;6.00;;;3.03;;
3070;SDS011;1546;47.208;9.038;2022-08-03T00:41:16;4.00;;;2.07;;
3070;SDS011;1546;47.208;9.038;2022-08-03T00:44:02;5.53;;;2.10;;
3070;SDS011;1546;47.208;9.038;2022-08-03T00:46:48;4.53;;;2.37;;
3070;SDS011;1546;47.208;9.038;2022-08-03T00:49:34;7.33;;;3.07;;
3070;SDS011;1546;47.208;9.038;2022-08-03T00:52:21;5.10;;;2.93;;
3070;SDS011;1546;47.208;9.038;2022-08-03T00:55:06;4.87;;;2.63;;
3070;SDS011;1546;47.208;9.038;2022-08-03T00:57:53;5.30;;;2.90;;
3070;SDS011;1546;47.208;9.038;2022-08-03T01:00:39;8.00;;;2.63;;
3070;SDS011;1546;47.208;9.038;2022-08-03T01:03:25;4.10;;;2.37;;
3070;SDS011;1546;47.208;9.038;2022-08-03T01:06:11;4.60;;;2.20;;
3070;SDS011;1546;47.208;9.038;2022-08-03T01:09:11;5.00;;;2.33;;
3070;SDS011;1546;47.208;9.038;2022-08-03T01:12:10;4.53;;;2.73;;
3070;SDS011;1546;47.208;9.038;2022-08-03T01:15:09;4.57;;;3.00;;
3070;SDS011;1546;47.208;9.038;2022-08-03T01:18:02;4.63;;;2.80;;
3070;SDS011;1546;47.208;9.038;2022-08-03T01:20:51;4.10;;;2.20;;
3070;SDS011;1546;47.208;9.038;2022-08-03T01:26:57;9.97;;;2.60;;
3070;SDS011;1546;47.208;9.038;2022-08-03T01:30:00;4.67;;;2.90;;
3070;SDS011;1546;47.208;9.038;2022-08-03T01:32:50;5.60;;;3.10;;
3070;SDS011;1546;47.208;9.038;2022-08-03T01:35:43;5.20;;;3.13;;
3070;SDS011;1546;47.208;9.038;2022-08-03T01:38:31;5.00;;;2.70;;
3070;SDS011;1546;47.208;9.038;2022-08-03T01:41:19;4.30;;;2.67;;
3070;SDS011;1546;47.208;9.038;2022-08-03T01:44:07;6.67;;;2.40;;
3070;SDS011;1546;47.208;9.038;2022-08-03T01:46:56;5.60;;;2.83;;
3070;SDS011;1546;47.208;9.038;2022-08-03T01:49:43;3.83;;;2.20;;
3070;SDS011;1546;47.208;9.038;2022-08-03T01:52:30;6.37;;;2.60;;
3070;SDS011;1546;47.208;9.038;2022-08-03T01:55:18;5.77;;;2.67;;
3070;SDS011;1546;47.208;9.038;2022-08-03T01:58:06;4.10;;;2.53;;
3070;SDS011;1546;47.208;9.038;2022-08-03T02:00:52;4.50;;;2.83;;
3070;SDS011;1546;47.208;9.038;2022-08-03T02:03:43;5.40;;;2.70;;
3070;SDS011;1546;47.208;9.038;2022-08-03T02:06:31;4.93;;;2.83;;
3070;SDS011;1546;47.208;9.038;2022-08-03T02:09:18;5.60;;;2.73;;
3070;SDS011;1546;47.208;9.038;2022-08-03T02:12:06;4.73;;;2.33;;
3070;SDS011;1546;47.208;9.038;2022-08-03T02:14:53;4.97;;;3.03;;
3070;SDS011;1546;47.208;9.038;2022-08-03T02:17:40;4.90;;;3.33;;
3070;SDS011;1546;47.208;9.038;2022-08-03T02:20:29;4.33;;;2.60;;
3070;SDS011;1546;47.208;9.038;2022-08-03T02:23:18;4.80;;;2.40;;
3070;SDS011;1546;47.208;9.038;2022-08-03T02:26:06;5.07;;;2.93;;
3070;SDS011;1546;47.208;9.038;2022-08-03T02:28:55;4.97;;;3.00;;
3070;SDS011;1546;47.208;9.038;2022-08-03T02:31:43;5.43;;;2.87;;
3070;SDS011;1546;47.208;9.038;2022-08-03T02:34:30;6.70;;;2.70;;
3070;SDS011;1546;47.208;9.038;2022-08-03T02:37:20;4.57;;;2.63;;
3070;SDS011;1546;47.208;9.038;2022-08-03T02:40:10;5.60;;;2.70;;
3070;SDS011;1546;47.208;9.038;2022-08-03T02:42:58;7.80;;;2.30;;
3070;SDS011;1546;47.208;9.038;2022-08-03T02:45:47;6.60;;;2.60;;
3070;SDS011;1546;47.208;9.038;2022-08-03T02:48:34;5.57;;;3.40;;
3070;SDS011;1546;47.208;9.038;2022-08-03T02:51:22;4.60;;;2.90;;
3070;SDS011;1546;47.208;9.038;2022-08-03T02:54:10;4.83;;;2.20;;
3070;SDS011;1546;47.208;9.038;2022-08-03T02:56:58;5.80;;;3.00;;
3070;SDS011;1546;47.208;9.038;2022-08-03T02:59:46;6.03;;;2.60;;
3070;SDS011;1546;47.208;9.038;2022-08-03T03:02:33;5.13;;;2.60;;
3070;SDS011;1546;47.208;9.038;2022-08-03T03:05:20;4.80;;;3.10;;
3070;SDS011;1546;47.208;9.038;2022-08-03T03:08:05;5.30;;;3.10;;
3070;SDS011;1546;47.208;9.038;2022-08-03T03:10:54;5.00;;;2.60;;
3070;SDS011;1546;47.208;9.038;2022-08-03T03:13:41;4.23;;;2.83;;
3070;SDS011;1546;47.208;9.038;2022-08-03T03:16:27;4.73;;;2.40;;
3070;SDS011;1546;47.208;9.038;2022-08-03T03:19:14;4.40;;;2.50;;
3070;SDS011;1546;47.208;9.038;2022-08-03T03:22:02;5.60;;;3.07;;
3070;SDS011;1546;47.208;9.038;2022-08-03T03:24:49;12.93;;;3.10;;
3070;SDS011;1546;47.208;9.038;2022-08-03T03:27:39;6.57;;;2.60;;
3070;SDS011;1546;47.208;9.038;2022-08-03T03:30:24;4.70;;;1.97;;
3070;SDS011;1546;47.208;9.038;2022-08-03T03:33:11;5.90;;;3.00;;
3070;SDS011;1546;47.208;9.038;2022-08-03T03:35:57;4.93;;;2.53;;
3070;SDS011;1546;47.208;9.038;2022-08-03T03:38:43;6.17;;;3.00;;
3070;SDS011;1546;47.208;9.038;2022-08-03T03:41:28;5.13;;;2.53;;
3070;SDS011;1546;47.208;9.038;2022-08-03T03:44:15;4.97;;;2.53;;
3070;SDS011;1546;47.208;9.038;2022-08-03T03:47:01;4.40;;;2.73;;
3070;SDS011;1546;47.208;9.038;2022-08-03T03:49:47;4.83;;;2.87;;
3070;SDS011;1546;47.208;9.038;2022-08-03T03:52:32;4.40;;;2.60;;
3070;SDS011;1546;47.208;9.038;2022-08-03T03:55:18;4.63;;;2.73;;
3070;SDS011;1546;47.208;9.038;2022-08-03T03:58:04;5.97;;;2.80;;
3070;SDS011;1546;47.208;9.038;2022-08-03T04:00:52;6.00;;;2.57;;
3070;SDS011;1546;47.208;9.038;2022-08-03T04:03:37;3.73;;;2.30;;
3070;SDS011;1546;47.208;9.038;2022-08-03T04:06:23;5.40;;;2.50;;
3070;SDS011;1546;47.208;9.038;2022-08-03T04:09:26;5.17;;;3.27;;
3070;SDS011;1546;47.208;9.038;2022-08-03T04:12:30;4.50;;;2.90;;
3070;SDS011;1546;47.208;9.038;2022-08-03T04:15:16;4.80;;;2.77;;
3070;SDS011;1546;47.208;9.038;2022-08-03T04:18:05;5.60;;;3.30;;
3070;SDS011;1546;47.208;9.038;2022-08-03T04:20:55;5.40;;;3.60;;
3070;SDS011;1546;47.208;9.038;2022-08-03T04:23:43;4.30;;;2.80;;
3070;SDS011;1546;47.208;9.038;2022-08-03T04:26:32;6.13;;;2.57;;
3070;SDS011;1546;47.208;9.038;2022-08-03T04:29:23;6.87;;;2.80;;
3070;SDS011;1546;47.208;9.038;2022-08-03T04:32:10;4.50;;;2.70;;
3070;SDS011;1546;47.208;9.038;2022-08-03T04:34:59;9.90;;;3.07;;
3070;SDS011;1546;47.208;9.038;2022-08-03T04:37:45;4.63;;;2.90;;
3070;SDS011;1546;47.208;9.038;2022-08-03T04:40:33;5.90;;;2.50;;
3070;SDS011;1546;47.208;9.038;2022-08-03T04:43:20;5.00;;;2.73;;
3070;SDS011;1546;47.208;9.038;2022-08-03T04:46:07;5.63;;;3.10;;
3070;SDS011;1546;47.208;9.038;2022-08-03T04:48:54;5.93;;;2.83;;
3070;SDS011;1546;47.208;9.038;2022-08-03T04:51:41;4.13;;;2.70;;
3070;SDS011;1546;47.208;9.038;2022-08-03T04:54:27;6.17;;;3.30;;
3070;SDS011;1546;47.208;9.038;2022-08-03T04:57:13;3.97;;;2.50;;
3070;SDS011;1546;47.208;9.038;2022-08-03T04:59:58;4.20;;;2.30;;
3070;SDS011;1546;47.208;9.038;2022-08-03T05:02:44;4.10;;;2.27;;
3070;SDS011;1546;47.208;9.038;2022-08-03T05:05:29;5.30;;;2.47;;
3070;SDS011;1546;47.208;9.038;2022-08-03T05:08:16;3.93;;;2.27;;
3070;SDS011;1546;47.208;9.038;2022-08-03T05:11:02;4.47;;;2.97;;
3070;SDS011;1546;47.208;9.038;2022-08-03T05:13:48;4.57;;;2.93;;
3070;SDS011;1546;47.208;9.038;2022-08-03T05:16:33;5.07;;;3.20;;
3070;SDS011;1546;47.208;9.038;2022-08-03T05:19:19;4.30;;;2.80;;
3070;SDS011;1546;47.208;9.038;2022-08-03T05:22:04;5.67;;;3.30;;
3070;SDS011;1546;47.208;9.038;2022-08-03T05:24:51;7.27;;;3.00;;
3070;SDS011;1546;47.208;9.038;2022-08-03T05:27:37;4.63;;;2.80;;
3070;SDS011;1546;47.208;9.038;2022-08-03T05:30:22;5.67;;;3.43;;
3070;SDS011;1546;47.208;9.038;2022-08-03T05:33:08;4.40;;;2.13;;
3070;SDS011;1546;47.208;9.038;2022-08-03T05:35:54;5.60;;;2.57;;
3070;SDS011;1546;47.208;9.038;2022-08-03T05:38:39;11.13;;;2.73;;
3070;SDS011;1546;47.208;9.038;2022-08-03T05:41:26;7.20;;;2.70;;
3070;SDS011;1546;47.208;9.038;2022-08-03T05:44:12;6.80;;;4.87;;
3070;SDS011;1546;47.208;9.038;2022-08-03T05:46:58;4.17;;;2.73;;
3070;SDS011;1546;47.208;9.038;2022-08-03T05:49:43;5.33;;;2.93;;
3070;SDS011;1546;47.208;9.038;2022-08-03T05:52:29;4.83;;;3.03;;
3070;SDS011;1546;47.208;9.038;2022-08-03T05:55:15;4.40;;;2.50;;
3070;SDS011;1546;47.208;9.038;2022-08-03T05:58:02;4.10;;;2.40;;
3070;SDS011;1546;47.208;9.038;2022-08-03T06:00:48;7.43;;;3.05;;
3070;SDS011;1546;47.208;9.038;2022-08-03T06:03:33;5.03;;;2.63;;
3070;SDS011;1546;47.208;9.038;2022-08-03T06:06:19;3.97;;;2.33;;
3070;SDS011;1546;47.208;9.038;2022-08-03T06:09:05;6.37;;;2.80;;
3070;SDS011;1546;47.208;9.038;2022-08-03T06:11:50;4.43;;;2.40;;
3070;SDS011;1546;47.208;9.038;2022-08-03T06:14:38;4.83;;;2.83;;
3070;SDS011;1546;47.208;9.038;2022-08-03T06:17:23;6.40;;;2.53;;
3070;SDS011;1546;47.208;9.038;2022-08-03T06:20:09;5.17;;;2.70;;
3070;SDS011;1546;47.208;9.038;2022-08-03T06:22:55;11.97;;;3.17;;
3070;SDS011;1546;47.208;9.038;2022-08-03T06:25:41;4.00;;;2.30;;
3070;SDS011;1546;47.208;9.038;2022-08-03T06:28:26;4.83;;;2.70;;
3070;SDS011;1546;47.208;9.038;2022-08-03T06:31:13;4.50;;;2.70;;
3070;SDS011;1546;47.208;9.038;2022-08-03T06:33:59;5.63;;;2.50;;
3070;SDS011;1546;47.208;9.038;2022-08-03T06:36:46;4.87;;;2.50;;
3070;SDS011;1546;47.208;9.038;2022-08-03T06:39:33;3.87;;;2.30;;
3070;SDS011;1546;47.208;9.038;2022-08-03T06:42:19;6.57;;;2.70;;
3070;SDS011;1546;47.208;9.038;2022-08-03T06:45:05;4.67;;;2.97;;
3070;SDS011;1546;47.208;9.038;2022-08-03T06:48:00;4.50;;;2.57;;
3070;SDS011;1546;47.208;9.038;2022-08-03T06:50:47;3.97;;;2.37;;
3070;SDS011;1546;47.208;9.038;2022-08-03T06:53:32;5.10;;;2.30;;
3070;SDS011;1546;47.208;9.038;2022-08-03T06:56:18;5.97;;;2.90;;
3070;SDS011;1546;47.208;9.038;2022-08-03T06:59:04;5.00;;;2.70;;
3070;SDS011;1546;47.208;9.038;2022-08-03T07:01:49;4.20;;;2.77;;
3070;SDS011;1546;47.208;9.038;2022-08-03T07:04:36;5.67;;;2.77;;
3070;SDS011;1546;47.208;9.038;2022-08-03T07:07:21;4.77;;;2.83;;
3070;SDS011;1546;47.208;9.038;2022-08-03T07:10:07;6.13;;;3.13;;
3070;SDS011;1546;47.208;9.038;2022-08-03T07:12:54;4.00;;;2.60;;
3070;SDS011;1546;47.208;9.038;2022-08-03T07:15:39;8.23;;;3.40;;
3070;SDS011;1546;47.208;9.038;2022-08-03T07:18:25;6.37;;;2.93;;
3070;SDS011;1546;47.208;9.038;2022-08-03T07:21:12;4.80;;;3.13;;
3070;SDS011;1546;47.208;9.038;2022-08-03T07:23:59;4.50;;;3.23;;
3070;SDS011;1546;47.208;9.038;2022-08-03T07:26:44;5.50;;;3.13;;
3070;SDS011;1546;47.208;9.038;2022-08-03T07:29:30;5.60;;;2.87;;
3070;SDS011;1546;47.208;9.038;2022-08-03T07:32:16;4.47;;;2.90;;
3070;SDS011;1546;47.208;9.038;2022-08-03T07:35:01;4.87;;;2.90;;
3070;SDS011;1546;47.208;9.038;2022-08-03T07:37:49;4.60;;;2.87;;
3070;SDS011;1546;47.208;9.038;2022-08-03T07:40:35;4.93;;;3.10;;
3070;SDS011;1546;47.208;9.038;2022-08-03T07:43:20;4.40;;;2.87;;
3070;SDS011;1546;47.208;9.038;2022-08-03T07:46:07;9.67;;;2.97;;
3070;SDS011;1546;47.208;9.038;2022-08-03T07:48:52;4.57;;;2.80;;
3070;SDS011;1546;47.208;9.038;2022-08-03T07:51:38;4.40;;;2.30;;
3070;SDS011;1546;47.208;9.038;2022-08-03T07:54:25;4.30;;;2.53;;
3070;SDS011;1546;47.208;9.038;2022-08-03T07:57:10;5.13;;;3.50;;
3070;SDS011;1546;47.208;9.038;2022-08-03T07:59:56;6.20;;;3.00;;
3070;SDS011;1546;47.208;9.038;2022-08-03T08:02:41;4.30;;;2.80;;
3070;SDS011;1546;47.208;9.038;2022-08-03T08:05:27;9.63;;;3.60;;
3070;SDS011;1546;47.208;9.038;2022-08-03T08:08:13;6.27;;;3.30;;
3070;SDS011;1546;47.208;9.038;2022-08-03T08:11:00;7.20;;;3.10;;
3070;SDS011;1546;47.208;9.038;2022-08-03T08:13:46;5.77;;;3.37;;
3070;SDS011;1546;47.208;9.038;2022-08-03T08:16:31;8.17;;;3.20;;
3070;SDS011;1546;47.208;9.038;2022-08-03T08:19:17;8.83;;;3.20;;
3070;SDS011;1546;47.208;9.038;2022-08-03T08:22:03;4.90;;;3.20;;
3070;SDS011;1546;47.208;9.038;2022-08-03T08:24:49;4.60;;;3.23;;
3070;SDS011;1546;47.208;9.038;2022-08-03T08:27:40;6.00;;;3.60;;
3070;SDS011;1546;47.208;9.038;2022-08-03T08:30:27;7.37;;;4.17;;
3070;SDS011;1546;47.208;9.038;2022-08-03T08:33:12;5.10;;;4.10;;
3070;SDS011;1546;47.208;9.038;2022-08-03T08:35:58;4.83;;;3.37;;
3070;SDS011;1546;47.208;9.038;2022-08-03T08:38:44;5.70;;;3.97;;
3070;SDS011;1546;47.208;9.038;2022-08-03T08:41:30;6.53;;;3.70;;
3070;SDS011;1546;47.208;9.038;2022-08-03T08:44:19;5.20;;;3.67;;
3070;SDS011;1546;47.208;9.038;2022-08-03T08:47:04;5.47;;;3.00;;
3070;SDS011;1546;47.208;9.038;2022-08-03T08:49:52;5.40;;;3.20;;
3070;SDS011;1546;47.208;9.038;2022-08-03T08:52:39;9.80;;;3.27;;
3070;SDS011;1546;47.208;9.038;2022-08-03T08:55:25;8.10;;;3.60;;
3070;SDS011;1546;47.208;9.038;2022-08-03T08:58:10;6.10;;;3.03;;
3070;SDS011;1546;47.208;9.038;2022-08-03T09:00:57;5.73;;;3.03;;
3070;SDS011;1546;47.208;9.038;2022-08-03T09:03:43;5.00;;;2.93;;
3070;SDS011;1546;47.208;9.038;2022-08-03T09:06:29;4.83;;;3.27;;
3070;SDS011;1546;47.208;9.038;2022-08-03T09:09:15;7.27;;;3.77;;
3070;SDS011;1546;47.208;9.038;2022-08-03T09:12:01;5.07;;;2.90;;
3070;SDS011;1546;47.208;9.038;2022-08-03T09:14:47;4.90;;;3.50;;
3070;SDS011;1546;47.208;9.038;2022-08-03T09:17:39;4.80;;;3.10;;
3070;SDS011;1546;47.208;9.038;2022-08-03T09:20:26;5.00;;;3.27;;
3070;SDS011;1546;47.208;9.038;2022-08-03T09:23:13;4.97;;;3.93;;
3070;SDS011;1546;47.208;9.038;2022-08-03T09:26:00;4.77;;;3.10;;
3070;SDS011;1546;47.208;9.038;2022-08-03T09:28:45;5.00;;;3.03;;
3070;SDS011;1546;47.208;9.038;2022-08-03T09:31:31;4.37;;;3.20;;
3070;SDS011;1546;47.208;9.038;2022-08-03T09:34:22;5.10;;;3.63;;
3070;SDS011;1546;47.208;9.038;2022-08-03T09:37:11;17.20;;;3.40;;
3070;SDS011;1546;47.208;9.038;2022-08-03T09:39:58;4.20;;;2.70;;
3070;SDS011;1546;47.208;9.038;2022-08-03T09:42:54;6.50;;;2.77;;
3070;SDS011;1546;47.208;9.038;2022-08-03T09:45:40;5.23;;;3.30;;
3070;SDS011;1546;47.208;9.038;2022-08-03T09:48:27;5.60;;;3.47;;
3070;SDS011;1546;47.208;9.038;2022-08-03T09:51:15;6.10;;;3.07;;
3070;SDS011;1546;47.208;9.038;2022-08-03T09:54:02;5.10;;;3.30;;
3070;SDS011;1546;47.208;9.038;2022-08-03T09:56:48;5.27;;;3.47;;
3070;SDS011;1546;47.208;9.038;2022-08-03T09:59:34;5.20;;;3.47;;
3070;SDS011;1546;47.208;9.038;2022-08-03T10:02:20;5.43;;;3.80;;
3070;SDS011;1546;47.208;9.038;2022-08-03T10:05:07;4.27;;;3.03;;
3070;SDS011;1546;47.208;9.038;2022-08-03T10:07:56;6.20;;;3.67;;
3070;SDS011;1546;47.208;9.038;2022-08-03T10:10:41;5.43;;;4.13;;
3070;SDS011;1546;47.208;9.038;2022-08-03T10:13:28;7.30;;;3.17;;
3070;SDS011;1546;47.208;9.038;2022-08-03T10:16:14;6.20;;;3.90;;
3070;SDS011;1546;47.208;9.038;2022-08-03T10:18:59;6.33;;;3.40;;
3070;SDS011;1546;47.208;9.038;2022-08-03T10:21:46;5.63;;;3.17;;
3070;SDS011;1546;47.208;9.038;2022-08-03T10:24:39;4.80;;;3.20;;
3070;SDS011;1546;47.208;9.038;2022-08-03T10:27:32;4.67;;;2.47;;
3070;SDS011;1546;47.208;9.038;2022-08-03T10:30:19;5.17;;;3.00;;
3070;SDS011;1546;47.208;9.038;2022-08-03T10:33:08;4.30;;;2.80;;
3070;SDS011;1546;47.208;9.038;2022-08-03T10:35:58;4.47;;;3.37;;
3070;SDS011;1546;47.208;9.038;2022-08-03T10:38:46;4.97;;;2.87;;
3070;SDS011;1546;47.208;9.038;2022-08-03T10:41:37;5.63;;;3.80;;
3070;SDS011;1546;47.208;9.038;2022-08-03T10:44:25;4.80;;;3.50;;
3070;SDS011;1546;47.208;9.038;2022-08-03T10:47:16;5.13;;;2.80;;
3070;SDS011;1546;47.208;9.038;2022-08-03T10:50:02;6.70;;;3.10;;
3070;SDS011;1546;47.208;9.038;2022-08-03T10:52:52;5.07;;;2.90;;
3070;SDS011;1546;47.208;9.038;2022-08-03T10:55:39;4.70;;;3.50;;
3070;SDS011;1546;47.208;9.038;2022-08-03T10:58:48;9.77;;;3.60;;
3070;SDS011;1546;47.208;9.038;2022-08-03T11:01:48;5.90;;;3.10;;
3070;SDS011;1546;47.208;9.038;2022-08-03T11:04:34;4.47;;;2.90;;
3070;SDS011;1546;47.208;9.038;2022-08-03T11:07:20;5.00;;;2.90;;
3070;SDS011;1546;47.208;9.038;2022-08-03T11:10:07;4.90;;;3.57;;
3070;SDS011;1546;47.208;9.038;2022-08-03T11:13:15;4.80;;;3.13;;
3070;SDS011;1546;47.208;9.038;2022-08-03T11:16:17;3.80;;;2.60;;
3070;SDS011;1546;47.208;9.038;2022-08-03T11:19:04;4.17;;;2.87;;
3070;SDS011;1546;47.208;9.038;2022-08-03T11:21:51;6.50;;;3.23;;
3070;SDS011;1546;47.208;9.038;2022-08-03T11:24:59;6.90;;;3.37;;
3070;SDS011;1546;47.208;9.038;2022-08-03T11:27:45;4.97;;;2.93;;
3070;SDS011;1546;47.208;9.038;2022-08-03T11:30:30;4.63;;;3.03;;
3070;SDS011;1546;47.208;9.038;2022-08-03T11:33:28;4.27;;;2.97;;
3070;SDS011;1546;47.208;9.038;2022-08-03T11:36:15;4.40;;;2.70;;
3070;SDS011;1546;47.208;9.038;2022-08-03T11:42:37;4.27;;;2.57;;
3070;SDS011;1546;47.208;9.038;2022-08-03T11:45:36;4.40;;;2.90;;
3070;SDS011;1546;47.208;9.038;2022-08-03T11:48:22;4.17;;;2.80;;
3070;SDS011;1546;47.208;9.038;2022-08-03T11:51:18;5.83;;;3.10;;
3070;SDS011;1546;47.208;9.038;2022-08-03T11:54:05;4.70;;;2.87;;
3070;SDS011;1546;47.208;9.038;2022-08-03T11:56:51;3.97;;;2.93;;
3070;SDS011;1546;47.208;9.038;2022-08-03T11:59:37;4.70;;;2.70;;
3070;SDS011;1546;47.208;9.038;2022-08-03T12:02:24;4.23;;;2.80;;
3070;SDS011;1546;47.208;9.038;2022-08-03T12:05:10;5.83;;;3.00;;
3070;SDS011;1546;47.208;9.038;2022-08-03T12:07:55;3.67;;;2.40;;
3070;SDS011;1546;47.208;9.038;2022-08-03T12:10:46;5.27;;;3.57;;
3070;SDS011;1546;47.208;9.038;2022-08-03T12:13:37;4.50;;;2.77;;
3070;SDS011;1546;47.208;9.038;2022-08-03T12:16:24;6.50;;;3.73;;
3070;SDS011;1546;47.208;9.038;2022-08-03T12:19:12;7.40;;;4.13;;
3070;SDS011;1546;47.208;9.038;2022-08-03T12:21:58;5.07;;;3.00;;
3070;SDS011;1546;47.208;9.038;2022-08-03T12:24:43;4.03;;;3.03;;
3070;SDS011;1546;47.208;9.038;2022-08-03T12:27:29;3.80;;;2.70;;
3070;SDS011;1546;47.208;9.038;2022-08-03T12:30:15;3.77;;;2.63;;
3070;SDS011;1546;47.208;9.038;2022-08-03T12:33:10;4.20;;;2.90;;
3070;SDS011;1546;47.208;9.038;2022-08-03T12:36:07;4.90;;;2.53;;
3070;SDS011;1546;47.208;9.038;2022-08-03T12:38:54;4.30;;;2.80;;
3070;SDS011;1546;47.208;9.038;2022-08-03T12:41:41;3.70;;;2.67;;
3070;SDS011;1546;47.208;9.038;2022-08-03T12:44:30;4.60;;;2.40;;
3070;SDS011;1546;47.208;9.038;2022-08-03T12:47:17;3.60;;;2.63;;
3070;SDS011;1546;47.208;9.038;2022-08-03T12:50:02;5.63;;;2.53;;
3070;SDS011;1546;47.208;9.038;2022-08-03T12:52:50;3.67;;;2.33;;
3070;SDS011;1546;47.208;9.038;2022-08-03T12:55:36;3.60;;;2.63;;
3070;SDS011;1546;47.208;9.038;2022-08-03T12:58:31;3.50;;;2.30;;
3070;SDS011;1546;47.208;9.038;2022-08-03T13:01:18;3.90;;;2.43;;
3070;SDS011;1546;47.208;9.038;2022-08-03T13:04:06;5.37;;;2.80;;
3070;SDS011;1546;47.208;9.038;2022-08-03T13:06:58;4.00;;;2.50;;
3070;SDS011;1546;47.208;9.038;2022-08-03T13:09:47;3.93;;;2.60;;
3070;SDS011;1546;47.208;9.038;2022-08-03T13:12:44;5.23;;;2.67;;
3070;SDS011;1546;47.208;9.038;2022-08-03T13:15:31;3.70;;;2.43;;
3070;SDS011;1546;47.208;9.038;2022-08-03T13:18:17;3.20;;;1.90;;
3070;SDS011;1546;47.208;9.038;2022-08-03T13:21:02;4.27;;;1.90;;
3070;SDS011;1546;47.208;9.038;2022-08-03T13:23:48;3.83;;;1.77;;
3070;SDS011;1546;47.208;9.038;2022-08-03T13:26:35;3.33;;;1.77;;
3070;SDS011;1546;47.208;9.038;2022-08-03T13:29:21;4.20;;;2.47;;
3070;SDS011;1546;47.208;9.038;2022-08-03T13:32:06;4.27;;;2.07;;
3070;SDS011;1546;47.208;9.038;2022-08-03T13:34:52;3.97;;;2.07;;
3070;SDS011;1546;47.208;9.038;2022-08-03T13:37:38;3.37;;;2.00;;
3070;SDS011;1546;47.208;9.038;2022-08-03T13:40:23;5.83;;;1.97;;
3070;SDS011;1546;47.208;9.038;2022-08-03T13:43:10;3.60;;;1.60;;
3070;SDS011;1546;47.208;9.038;2022-08-03T13:45:56;3.20;;;1.73;;
3070;SDS011;1546;47.208;9.038;2022-08-03T13:48:41;4.00;;;1.70;;
3070;SDS011;1546;47.208;9.038;2022-08-03T13:51:27;7.43;;;1.70;;
3070;SDS011;1546;47.208;9.038;2022-08-03T13:54:13;3.17;;;1.30;;
3070;SDS011;1546;47.208;9.038;2022-08-03T13:56:58;3.83;;;1.60;;
3070;SDS011;1546;47.208;9.038;2022-08-03T13:59:46;3.10;;;1.53;;
3070;SDS011;1546;47.208;9.038;2022-08-03T14:02:32;4.10;;;1.73;;
3070;SDS011;1546;47.208;9.038;2022-08-03T14:05:18;3.93;;;1.70;;
3070;SDS011;1546;47.208;9.038;2022-08-03T14:08:03;2.73;;;1.60;;
3070;SDS011;1546;47.208;9.038;2022-08-03T14:10:49;2.90;;;1.50;;
3070;SDS011;1546;47.208;9.038;2022-08-03T14:13:35;4.40;;;1.97;;
3070;SDS011;1546;47.208;9.038;2022-08-03T14:16:22;3.40;;;1.80;;
3070;SDS011;1546;47.208;9.038;2022-08-03T14:19:07;3.87;;;1.80;;
3070;SDS011;1546;47.208;9.038;2022-08-03T14:21:53;3.60;;;1.97;;
3070;SDS011;1546;47.208;9.038;2022-08-03T14:24:38;4.53;;;1.87;;
3070;SDS011;1546;47.208;9.038;2022-08-03T14:27:24;3.10;;;1.63;;
3070;SDS011;1546;47.208;9.038;2022-08-03T14:30:10;8.00;;;2.00;;
3070;SDS011;1546;47.208;9.038;2022-08-03T14:32:57;3.60;;;1.90;;
3070;SDS011;1546;47.208;9.038;2022-08-03T14:35:43;3.77;;;2.00;;
3070;SDS011;1546;47.208;9.038;2022-08-03T14:38:29;3.43;;;1.67;;
3070;SDS011;1546;47.208;9.038;2022-08-03T14:41:14;3.10;;;1.80;;
3070;SDS011;1546;47.208;9.038;2022-08-03T14:44:00;3.83;;;2.07;;
3070;SDS011;1546;47.208;9.038;2022-08-03T14:46:46;3.60;;;1.87;;
3070;SDS011;1546;47.208;9.038;2022-08-03T14:49:33;3.10;;;1.50;;
3070;SDS011;1546;47.208;9.038;2022-08-03T14:52:19;4.03;;;2.13;;
3070;SDS011;1546;47.208;9.038;2022-08-03T14:55:05;5.37;;;2.00;;
3070;SDS011;1546;47.208;9.038;2022-08-03T14:57:50;3.23;;;2.10;;
3070;SDS011;1546;47.208;9.038;2022-08-03T15:00:36;3.83;;;2.30;;
3070;SDS011;1546;47.208;9.038;2022-08-03T15:03:22;3.10;;;1.67;;
3070;SDS011;1546;47.208;9.038;2022-08-03T15:06:10;3.10;;;1.70;;
3070;SDS011;1546;47.208;9.038;2022-08-03T15:08:55;4.20;;;1.73;;
3070;SDS011;1546;47.208;9.038;2022-08-03T15:11:41;3.50;;;2.00;;
3070;SDS011;1546;47.208;9.038;2022-08-03T15:14:27;3.93;;;1.83;;
3070;SDS011;1546;47.208;9.038;2022-08-03T15:17:12;5.13;;;2.53;;
3070;SDS011;1546;47.208;9.038;2022-08-03T15:19:58;3.70;;;2.07;;
3070;SDS011;1546;47.208;9.038;2022-08-03T15:22:45;4.77;;;2.00;;
3070;SDS011;1546;47.208;9.038;2022-08-03T15:25:30;4.63;;;2.10;;
3070;SDS011;1546;47.208;9.038;2022-08-03T15:28:16;3.43;;;2.00;;
3070;SDS011;1546;47.208;9.038;2022-08-03T15:31:03;2.90;;;1.50;;
3070;SDS011;1546;47.208;9.038;2022-08-03T15:33:49;4.53;;;2.00;;
3070;SDS011;1546;47.208;9.038;2022-08-03T15:36:34;5.90;;;1.80;;
3070;SDS011;1546;47.208;9.038;2022-08-03T15:39:21;7.03;;;2.57;;
3070;SDS011;1546;47.208;9.038;2022-08-03T15:42:07;3.40;;;2.10;;
3070;SDS011;1546;47.208;9.038;2022-08-03T15:44:53;3.87;;;2.33;;
3070;SDS011;1546;47.208;9.038;2022-08-03T15:47:38;4.30;;;2.17;;
3070;SDS011;1546;47.208;9.038;2022-08-03T15:50:24;3.50;;;1.93;;
3070;SDS011;1546;47.208;9.038;2022-08-03T15:53:09;4.03;;;1.90;;
3070;SDS011;1546;47.208;9.038;2022-08-03T15:55:56;3.90;;;2.50;;
3070;SDS011;1546;47.208;9.038;2022-08-03T15:58:42;5.23;;;1.77;;
3070;SDS011;1546;47.208;9.038;2022-08-03T16:01:28;3.00;;;1.43;;
3070;SDS011;1546;47.208;9.038;2022-08-03T16:04:14;3.10;;;1.50;;
3070;SDS011;1546;47.208;9.038;2022-08-03T16:07:00;3.77;;;1.70;;
3070;SDS011;1546;47.208;9.038;2022-08-03T16:09:45;4.50;;;1.60;;
3070;SDS011;1546;47.208;9.038;2022-08-03T16:12:32;3.60;;;1.93;;
3070;SDS011;1546;47.208;9.038;2022-08-03T16:15:18;3.43;;;1.80;;
3070;SDS011;1546;47.208;9.038;2022-08-03T16:18:04;3.97;;;2.00;;
3070;SDS011;1546;47.208;9.038;2022-08-03T16:20:49;6.07;;;1.70;;
3070;SDS011;1546;47.208;9.038;2022-08-03T16:23:35;3.63;;;1.73;;
3070;SDS011;1546;47.208;9.038;2022-08-03T16:26:22;5.10;;;2.07;;
3070;SDS011;1546;47.208;9.038;2022-08-03T16:29:09;3.40;;;1.87;;
3070;SDS011;1546;47.208;9.038;2022-08-03T16:31:55;11.13;;;2.00;;
3070;SDS011;1546;47.208;9.038;2022-08-03T16:34:40;3.00;;;1.70;;
3070;SDS011;1546;47.208;9.038;2022-08-03T16:37:26;3.97;;;1.83;;
3070;SDS011;1546;47.208;9.038;2022-08-03T16:40:12;3.20;;;1.67;;
3070;SDS011;1546;47.208;9.038;2022-08-03T16:42:57;5.93;;;1.80;;
3070;SDS011;1546;47.208;9.038;2022-08-03T16:45:44;4.57;;;2.67;;
3070;SDS011;1546;47.208;9.038;2022-08-03T16:48:30;3.43;;;1.77;;
3070;SDS011;1546;47.208;9.038;2022-08-03T16:51:15;9.20;;;2.03;;
3070;SDS011;1546;47.208;9.038;2022-08-03T16:54:03;3.50;;;1.70;;
3070;SDS011;1546;47.208;9.038;2022-08-03T16:56:48;7.33;;;2.17;;
3070;SDS011;1546;47.208;9.038;2022-08-03T16:59:34;3.87;;;1.70;;
3070;SDS011;1546;47.208;9.038;2022-08-03T17:02:22;3.10;;;1.60;;
3070;SDS011;1546;47.208;9.038;2022-08-03T17:05:09;3.13;;;1.60;;
3070;SDS011;1546;47.208;9.038;2022-08-03T17:07:54;4.60;;;1.80;;
3070;SDS011;1546;47.208;9.038;2022-08-03T17:10:40;3.53;;;2.20;;
3070;SDS011;1546;47.208;9.038;2022-08-03T17:13:26;4.73;;;2.30;;
3070;SDS011;1546;47.208;9.038;2022-08-03T17:16:12;3.80;;;2.17;;
3070;SDS011;1546;47.208;9.038;2022-08-03T17:19:01;3.80;;;1.90;;
3070;SDS011;1546;47.208;9.038;2022-08-03T17:21:50;3.33;;;1.80;;
3070;SDS011;1546;47.208;9.038;2022-08-03T17:24:43;4.37;;;2.27;;
3070;SDS011;1546;47.208;9.038;2022-08-03T17:27:30;5.70;;;1.87;;